Time;durP1;ratioP1;P1;durP2;ratioP2;P2;SDS_P1;SDS_P2;PMS_P1;PMS_P2;Temp;Humidity;BMP_temperature;BMP_pressure;BME280_temperature;BME280_humidity;BME280_pressure;Samples;Min_cycle;Max_cycle;Signal;HPM_P1;HPM_P2
2021/04/25 00:01:47;;;;;;;2.80;1.58;;;19.50;45.40;;;;;;5122692;27;20119;-38
2021/04/25 00:04:15;;;;;;;3.28;1.70;;;19.50;45.40;;;;;;5122044;27;20053;-38
2021/04/25 00:06:43;;;;;;;3.05;1.60;;;19.50;45.40;;;;;;5120518;27;20070;-38
2021/04/25 00:09:11;;;;;;;6.85;1.40;;;19.50;45.40;;;;;;5119789;28;20047;-38
2021/04/25 00:11:38;;;;;;;2.40;1.40;;;19.50;45.40;;;;;;5122375;27;20062;-38
2021/04/25 00:14:05;;;;;;;2.72;1.23;;;19.50;45.40;;;;;;5122119;27;20063;-38
2021/04/25 00:16:32;;;;;;;2.40;1.45;;;19.50;46.00;;;;;;5121310;27;20058;-38
2021/04/25 00:18:59;;;;;;;2.30;1.17;;;19.50;45.40;;;;;;5121362;27;20070;-38
2021/04/25 00:21:28;;;;;;;2.75;1.50;;;19.50;45.40;;;;;;5123287;27;20120;-38
2021/04/25 00:23:55;;;;;;;2.55;1.25;;;19.50;46.00;;;;;;5108711;27;20044;-38
2021/04/25 00:26:23;;;;;;;3.70;1.52;;;19.50;45.40;;;;;;5125875;27;20131;-38
2021/04/25 00:28:49;;;;;;;3.95;1.75;;;19.50;45.40;;;;;;5125740;27;20035;-38
2021/04/25 00:31:17;;;;;;;2.80;1.42;;;19.50;45.40;;;;;;5126532;27;20051;-38
2021/04/25 00:33:43;;;;;;;2.30;1.40;;;19.50;45.40;;;;;;5125481;27;20112;-38
2021/04/25 00:36:10;;;;;;;4.82;1.40;;;19.50;45.40;;;;;;5124086;27;20126;-38
2021/04/25 00:38:37;;;;;;;1.90;1.42;;;19.50;45.40;;;;;;5107220;27;20057;-38
2021/04/25 00:41:06;;;;;;;2.47;1.33;;;19.50;46.00;;;;;;5125410;27;20047;-39
2021/04/25 00:43:36;;;;;;;2.20;1.45;;;19.50;45.40;;;;;;5124526;27;20053;-38
2021/04/25 00:46:03;;;;;;;2.72;1.50;;;19.50;45.40;;;;;;5125510;27;20061;-38
2021/04/25 00:48:30;;;;;;;3.28;1.52;;;19.50;45.40;;;;;;5125201;27;20063;-38
2021/04/25 00:50:58;;;;;;;3.33;1.52;;;19.50;45.40;;;;;;5125573;27;20071;-39
2021/04/25 00:53:24;;;;;;;2.35;1.50;;;19.50;45.40;;;;;;5125125;27;20051;-38
2021/04/25 00:55:52;;;;;;;2.10;1.45;;;19.50;45.40;;;;;;5124414;27;20062;-38
2021/04/25 00:58:19;;;;;;;2.70;1.40;;;19.50;45.40;;;;;;5124111;27;20514;-38
2021/04/25 01:00:46;;;;;;;2.35;1.63;;;19.50;45.40;;;;;;5124785;27;20035;-38
2021/04/25 01:03:13;;;;;;;3.85;1.58;;;19.50;45.40;;;;;;5123185;27;20100;-39
2021/04/25 01:05:40;;;;;;;3.70;1.65;;;19.50;45.40;;;;;;5124271;27;20518;-38
2021/04/25 01:08:07;;;;;;;2.80;1.52;;;19.50;45.40;;;;;;5123478;27;20048;-38
2021/04/25 01:10:33;;;;;;;2.78;1.60;;;19.50;45.40;;;;;;5124035;27;20055;-38
2021/04/25 01:13:01;;;;;;;2.80;1.80;;;19.50;45.30;;;;;;5124572;27;20058;-38
2021/04/25 01:15:28;;;;;;;2.22;1.50;;;19.50;45.30;;;;;;5123324;27;20460;-38
2021/04/25 01:17:55;;;;;;;3.05;1.33;;;19.50;45.30;;;;;;5124346;27;20093;-38
2021/04/25 01:20:23;;;;;;;3.25;1.40;;;19.50;45.30;;;;;;5123083;27;20062;-38
2021/04/25 01:22:50;;;;;;;2.75;1.30;;;19.50;45.30;;;;;;5123068;27;20045;-38
2021/04/25 01:25:20;;;;;;;3.55;1.40;;;19.50;45.30;;;;;;5124061;27;20039;-38
2021/04/25 01:27:47;;;;;;;2.42;1.70;;;19.50;45.30;;;;;;5123636;27;20036;-38
2021/04/25 01:30:18;;;;;;;2.70;1.33;;;19.50;45.30;;;;;;5123513;27;20047;-38
2021/04/25 01:32:45;;;;;;;2.53;1.48;;;19.50;45.30;;;;;;5122621;27;20058;-38
2021/04/25 01:35:21;;;;;;;2.33;1.55;;;19.50;45.30;;;;;;5123108;27;20055;-38
2021/04/25 01:37:49;;;;;;;2.28;1.48;;;19.50;45.30;;;;;;5123167;27;20043;-38
2021/04/25 01:40:18;;;;;;;2.83;1.48;;;19.50;45.30;;;;;;5106625;27;20053;-38
2021/04/25 01:42:45;;;;;;;1.80;1.30;;;19.50;45.30;;;;;;5123486;27;20047;-38
2021/04/25 01:45:16;;;;;;;2.65;1.50;;;19.50;45.30;;;;;;5125272;27;20508;-38
2021/04/25 01:47:48;;;;;;;2.28;1.33;;;19.50;45.30;;;;;;5124033;27;20078;-38
2021/04/25 01:50:17;;;;;;;2.08;1.20;;;19.50;45.30;;;;;;5124443;27;20052;-38
2021/04/25 01:52:45;;;;;;;2.38;1.40;;;19.50;45.30;;;;;;5123962;27;20047;-38
2021/04/25 01:55:14;;;;;;;1.67;1.27;;;19.50;45.30;;;;;;5123447;27;20487;-38
2021/04/25 01:57:41;;;;;;;3.35;1.52;;;19.50;45.30;;;;;;5122406;27;20104;-38
2021/04/25 02:00:11;;;;;;;2.65;1.33;;;19.50;45.30;;;;;;5104327;27;20055;-38
2021/04/25 02:02:38;;;;;;;2.83;1.80;;;19.50;45.30;;;;;;5122235;27;20051;-38
2021/04/25 02:05:06;;;;;;;2.78;1.63;;;19.50;45.30;;;;;;5122915;27;20044;-38
2021/04/25 02:07:32;;;;;;;2.20;1.33;;;19.50;45.30;;;;;;5122829;27;20457;-38
2021/04/25 02:09:59;;;;;;;2.60;1.50;;;19.50;45.30;;;;;;5122825;27;20047;-38
2021/04/25 02:12:26;;;;;;;2.95;1.42;;;19.50;45.30;;;;;;5123415;27;20058;-38
2021/04/25 02:14:52;;;;;;;2.47;1.30;;;19.50;45.30;;;;;;5102630;27;20464;-38
2021/04/25 02:17:19;;;;;;;2.92;1.20;;;19.50;45.30;;;;;;5101327;28;20047;-38
2021/04/25 02:19:46;;;;;;;2.35;1.23;;;19.50;45.30;;;;;;5103478;28;20452;-38
2021/04/25 02:22:12;;;;;;;3.50;1.80;;;19.50;45.20;;;;;;5102060;28;20056;-38
2021/04/25 02:24:39;;;;;;;3.47;1.92;;;19.50;45.20;;;;;;5083635;28;20073;-38
2021/04/25 02:27:06;;;;;;;2.28;1.70;;;19.50;45.30;;;;;;5102259;28;20043;-38
2021/04/25 02:29:33;;;;;;;2.15;1.60;;;19.50;45.20;;;;;;5102349;28;20036;-39
2021/04/25 02:32:00;;;;;;;2.20;1.50;;;19.50;45.20;;;;;;5103197;28;20446;-38
2021/04/25 02:34:27;;;;;;;2.03;1.30;;;19.50;45.20;;;;;;5101898;28;20055;-38
2021/04/25 02:36:54;;;;;;;2.40;1.50;;;19.50;45.20;;;;;;5101780;27;20051;-38
2021/04/25 02:39:20;;;;;;;2.47;1.60;;;19.50;45.20;;;;;;5101661;28;20047;-38
2021/04/25 02:41:47;;;;;;;2.38;1.30;;;19.50;45.20;;;;;;5101567;28;20671;-38
2021/04/25 02:44:14;;;;;;;2.10;1.40;;;19.50;45.20;;;;;;5102060;28;20499;-38
2021/04/25 02:46:41;;;;;;;2.05;1.70;;;19.50;45.20;;;;;;5102825;27;20040;-38
2021/04/25 02:49:08;;;;;;;2.65;1.40;;;19.50;45.20;;;;;;5101861;28;20469;-38
2021/04/25 02:51:34;;;;;;;3.00;1.60;;;19.50;45.20;;;;;;5103121;28;20393;-38
2021/04/25 02:54:01;;;;;;;3.60;1.40;;;19.50;45.20;;;;;;5101455;28;20052;-37
2021/04/25 02:56:28;;;;;;;2.88;1.63;;;19.50;45.20;;;;;;5101527;28;20051;-38
2021/04/25 02:58:54;;;;;;;3.22;1.70;;;19.50;45.20;;;;;;5101744;28;20052;-38
2021/04/25 03:01:21;;;;;;;1.95;1.23;;;19.50;45.20;;;;;;5102213;27;20500;-38
2021/04/25 03:03:48;;;;;;;3.20;1.52;;;19.50;45.20;;;;;;5101762;28;20047;-38
2021/04/25 03:06:16;;;;;;;2.10;1.63;;;19.50;45.20;;;;;;5102364;28;20095;-38
2021/04/25 03:08:43;;;;;;;1.90;1.23;;;19.50;45.20;;;;;;5100672;28;20055;-38
2021/04/25 03:11:10;;;;;;;2.63;1.50;;;19.50;45.20;;;;;;5100752;28;20059;-39
2021/04/25 03:13:37;;;;;;;2.75;1.70;;;19.50;45.20;;;;;;5102211;28;20043;-39
2021/04/25 03:16:04;;;;;;;3.35;1.60;;;19.50;45.20;;;;;;5121486;27;20043;-38
2021/04/25 03:18:30;;;;;;;2.75;1.33;;;19.50;45.20;;;;;;5103694;28;20054;-38
2021/04/25 03:20:58;;;;;;;2.05;1.70;;;19.50;45.20;;;;;;5121009;28;20047;-40
2021/04/25 03:23:25;;;;;;;3.10;1.70;;;19.50;45.20;;;;;;5122316;28;20475;-38
2021/04/25 03:25:52;;;;;;;4.75;1.70;;;19.50;45.20;;;;;;5122361;27;20079;-38
2021/04/25 03:28:20;;;;;;;3.35;1.80;;;19.50;45.20;;;;;;5123433;27;20060;-38
2021/04/25 03:30:47;;;;;;;3.45;1.83;;;19.50;45.20;;;;;;5123240;27;20043;-38
2021/04/25 03:33:14;;;;;;;2.38;1.50;;;19.50;45.20;;;;;;5121464;28;20043;-38
2021/04/25 03:35:40;;;;;;;2.03;1.52;;;19.50;45.20;;;;;;5123030;27;20050;-38
2021/04/25 03:38:07;;;;;;;2.35;1.30;;;19.50;45.20;;;;;;5121228;28;20047;-38
2021/04/25 03:40:34;;;;;;;3.05;1.63;;;19.50;45.20;;;;;;5121752;27;20483;-38
2021/04/25 03:43:00;;;;;;;2.78;1.65;;;19.50;45.20;;;;;;5122772;27;20531;-38
2021/04/25 03:45:27;;;;;;;2.40;1.65;;;19.50;45.20;;;;;;5122624;27;20098;-38
2021/04/25 03:47:54;;;;;;;1.90;1.50;;;19.50;45.20;;;;;;5121857;28;20044;-38
2021/04/25 03:50:24;;;;;;;2.78;1.45;;;19.50;45.20;;;;;;5121731;27;20039;-38
2021/04/25 03:52:51;;;;;;;1.92;1.48;;;19.50;45.20;;;;;;5121898;27;20044;-38
2021/04/25 03:55:20;;;;;;;1.75;1.27;;;19.50;45.10;;;;;;5123244;27;20345;-39
2021/04/25 03:57:50;;;;;;;1.85;1.52;;;19.50;45.10;;;;;;5125036;27;20047;-38
2021/04/25 04:00:19;;;;;;;1.95;1.20;;;19.50;45.20;;;;;;5127301;27;20058;-38
2021/04/25 04:02:46;;;;;;;2.75;1.60;;;19.50;45.20;;;;;;5124741;27;20407;-38
2021/04/25 04:05:13;;;;;;;3.15;1.65;;;19.50;45.10;;;;;;5126358;27;20054;-38
2021/04/25 04:07:40;;;;;;;2.55;1.63;;;19.50;45.10;;;;;;5124923;27;20043;-39
2021/04/25 04:10:07;;;;;;;2.90;1.65;;;19.50;45.20;;;;;;5125393;27;20047;-38
2021/04/25 04:12:34;;;;;;;2.13;1.48;;;19.50;45.10;;;;;;5126299;27;20409;-38
2021/04/25 04:15:01;;;;;;;2.20;1.33;;;19.50;45.10;;;;;;5124755;27;20054;-38
2021/04/25 04:17:28;;;;;;;2.03;1.50;;;19.50;45.10;;;;;;5126832;27;20484;-38
2021/04/25 04:19:55;;;;;;;2.83;1.60;;;19.50;45.10;;;;;;5125728;27;20048;-38
2021/04/25 04:22:21;;;;;;;3.55;1.52;;;19.50;45.10;;;;;;5126766;27;20048;-38
2021/04/25 04:24:48;;;;;;;1.77;1.33;;;19.50;45.10;;;;;;5125966;27;20081;-38
2021/04/25 04:27:15;;;;;;;2.42;1.50;;;19.50;45.10;;;;;;5125442;27;20047;-38
2021/04/25 04:29:41;;;;;;;1.73;1.23;;;19.50;45.10;;;;;;5125757;27;20096;-38
2021/04/25 04:32:08;;;;;;;1.80;1.50;;;19.50;45.10;;;;;;5125509;27;20062;-38
2021/04/25 04:34:37;;;;;;;2.42;1.50;;;19.50;45.10;;;;;;5125637;27;20509;-38
2021/04/25 04:37:04;;;;;;;2.30;1.67;;;19.50;45.10;;;;;;5125081;27;20047;-39
2021/04/25 04:39:31;;;;;;;2.05;1.33;;;19.50;45.00;;;;;;5125009;27;20051;-38
2021/04/25 04:41:58;;;;;;;3.42;1.70;;;19.50;45.10;;;;;;5124080;27;20092;-39
2021/04/25 04:44:25;;;;;;;2.92;1.60;;;19.50;45.10;;;;;;5125138;27;20097;-38
2021/04/25 04:46:52;;;;;;;2.95;1.63;;;19.50;45.10;;;;;;5126030;27;20070;-38
2021/04/25 04:49:19;;;;;;;2.45;1.75;;;19.50;45.00;;;;;;5124352;27;20043;-38
2021/04/25 04:51:46;;;;;;;2.50;1.58;;;19.50;45.10;;;;;;5125278;27;20418;-38
2021/04/25 04:54:13;;;;;;;2.45;1.50;;;19.50;45.00;;;;;;5124230;27;20055;-38
2021/04/25 04:56:39;;;;;;;1.30;1.20;;;19.50;45.00;;;;;;5125467;27;20058;-38
2021/04/25 04:59:07;;;;;;;3.30;1.73;;;19.50;45.00;;;;;;5124624;27;20467;-38
2021/04/25 05:01:34;;;;;;;2.08;1.40;;;19.50;45.00;;;;;;5125141;27;20529;-38
2021/04/25 05:04:01;;;;;;;2.25;1.65;;;19.50;45.00;;;;;;5124415;27;20043;-39
2021/04/25 05:06:28;;;;;;;2.00;1.40;;;19.50;45.00;;;;;;5124262;27;20441;-38
2021/04/25 05:08:55;;;;;;;1.42;1.27;;;19.50;45.00;;;;;;5122054;27;20035;-38
2021/04/25 05:11:21;;;;;;;2.75;1.55;;;19.50;45.00;;;;;;5124702;27;20070;-38
2021/04/25 05:13:48;;;;;;;2.63;1.55;;;19.50;45.00;;;;;;5133716;27;20464;-38
2021/04/25 05:16:15;;;;;;;3.25;1.67;;;19.50;45.00;;;;;;5131519;27;20130;-38
2021/04/25 05:18:42;;;;;;;3.80;1.42;;;19.50;45.00;;;;;;5117443;27;20422;-38
2021/04/25 05:21:09;;;;;;;1.90;1.35;;;19.50;44.90;;;;;;5132697;27;20402;-39
2021/04/25 05:23:36;;;;;;;2.70;1.40;;;19.50;44.90;;;;;;5133435;27;20043;-38
2021/04/25 05:26:03;;;;;;;3.15;1.70;;;19.50;44.90;;;;;;5119257;27;20392;-39
2021/04/25 05:28:30;;;;;;;2.08;1.33;;;19.50;44.90;;;;;;5129915;27;20422;-38
2021/04/25 05:30:59;;;;;;;1.75;1.40;;;19.50;44.90;;;;;;5131923;27;20043;-38
2021/04/25 05:33:25;;;;;;;4.10;1.60;;;19.50;44.90;;;;;;5132443;27;20043;-38
2021/04/25 05:35:53;;;;;;;2.65;1.20;;;19.50;44.90;;;;;;5131874;27;20080;-38
2021/04/25 05:38:20;;;;;;;1.95;1.60;;;19.60;45.00;;;;;;5132858;27;20121;-38
2021/04/25 05:40:47;;;;;;;2.42;1.60;;;19.60;45.00;;;;;;5130991;27;20043;-38
2021/04/25 05:43:14;;;;;;;2.03;1.20;;;19.60;44.90;;;;;;5131885;27;20918;-38
2021/04/25 05:45:40;;;;;;;2.60;1.33;;;19.60;44.90;;;;;;5132022;27;20051;-38
2021/04/25 05:48:07;;;;;;;2.30;1.60;;;19.60;44.90;;;;;;5131825;27;20051;-38
2021/04/25 05:50:35;;;;;;;2.05;1.38;;;19.60;44.90;;;;;;5134010;27;20043;-38
2021/04/25 05:53:02;;;;;;;1.92;1.52;;;19.60;44.90;;;;;;5132510;27;20509;-38
2021/04/25 05:55:29;;;;;;;2.47;1.40;;;19.60;44.90;;;;;;5130760;27;20039;-38
2021/04/25 05:57:56;;;;;;;1.88;1.50;;;19.60;44.90;;;;;;5132831;27;20079;-38
2021/04/25 06:00:25;;;;;;;2.00;1.58;;;19.60;44.90;;;;;;5133705;27;20044;-38
2021/04/25 06:02:56;;;;;;;1.55;1.27;;;19.60;44.90;;;;;;5134450;27;20125;-39
2021/04/25 06:05:23;;;;;;;1.58;1.33;;;19.60;44.90;;;;;;5114035;28;20089;-38
2021/04/25 06:07:53;;;;;;;2.33;1.38;;;19.60;44.90;;;;;;5125768;27;20035;-38
2021/04/25 06:10:20;;;;;;;2.35;1.30;;;19.60;44.90;;;;;;5114796;27;20043;-38
2021/04/25 06:12:49;;;;;;;2.30;1.40;;;19.60;44.90;;;;;;5115870;27;20048;-38
2021/04/25 06:15:17;;;;;;;1.88;1.27;;;19.60;44.90;;;;;;5131979;27;20088;-38
2021/04/25 06:17:45;;;;;;;1.67;1.20;;;19.60;44.90;;;;;;5130885;27;20054;-38
2021/04/25 06:20:16;;;;;;;2.10;1.63;;;19.60;44.90;;;;;;5116710;27;20043;-38
2021/04/25 06:22:44;;;;;;;2.30;1.35;;;19.60;44.90;;;;;;5127687;27;20054;-38
2021/04/25 06:25:13;;;;;;;1.50;1.30;;;19.60;44.80;;;;;;5133714;27;20043;-38
2021/04/25 06:27:40;;;;;;;1.85;1.17;;;19.60;44.80;;;;;;5130995;27;20422;-39
2021/04/25 06:30:09;;;;;;;1.70;1.40;;;19.60;44.90;;;;;;5129729;27;20096;-38
2021/04/25 06:32:37;;;;;;;2.00;1.20;;;19.60;44.80;;;;;;5131402;27;20055;-38
2021/04/25 06:35:04;;;;;;;2.55;1.40;;;19.70;44.90;;;;;;5129733;27;20443;-39
2021/04/25 06:37:31;;;;;;;2.05;1.42;;;19.70;44.90;;;;;;5128282;27;20047;-39
2021/04/25 06:39:58;;;;;;;2.20;1.60;;;19.60;44.80;;;;;;5122945;27;20047;-38
2021/04/25 06:42:24;;;;;;;1.55;1.15;;;19.70;44.90;;;;;;5121996;27;20039;-38
2021/04/25 06:44:51;;;;;;;1.52;1.27;;;19.70;44.90;;;;;;5122118;27;20436;-39
2021/04/25 06:47:18;;;;;;;2.33;1.50;;;19.70;44.80;;;;;;5122278;27;20043;-38
2021/04/25 06:49:45;;;;;;;2.38;1.55;;;19.70;44.80;;;;;;5122747;27;20075;-38
2021/04/25 06:52:12;;;;;;;1.58;1.30;;;19.70;44.80;;;;;;5123080;27;20055;-38
2021/04/25 06:54:39;;;;;;;2.22;1.20;;;19.70;44.80;;;;;;5122028;27;20060;-38
2021/04/25 06:57:07;;;;;;;2.47;1.73;;;19.70;44.80;;;;;;5121860;27;20055;-38
2021/04/25 06:59:34;;;;;;;2.50;1.35;;;19.70;44.80;;;;;;5123190;27;20556;-38
2021/04/25 07:02:01;;;;;;;2.63;1.60;;;19.70;44.80;;;;;;5122423;27;20479;-38
2021/04/25 07:04:28;;;;;;;2.72;1.67;;;19.70;44.80;;;;;;5102868;27;20380;-39
2021/04/25 07:06:55;;;;;;;2.20;1.55;;;19.70;44.70;;;;;;5123000;27;20112;-38
2021/04/25 07:09:22;;;;;;;1.98;1.40;;;19.70;44.70;;;;;;5103247;28;20039;-38
2021/04/25 07:11:48;;;;;;;1.83;1.33;;;19.70;44.70;;;;;;5123483;27;20040;-38
2021/04/25 07:14:16;;;;;;;2.83;1.63;;;19.70;44.70;;;;;;5103265;27;20063;-38
2021/04/25 07:16:42;;;;;;;2.13;1.40;;;19.70;44.70;;;;;;5121556;28;20048;-38
2021/04/25 07:19:09;;;;;;;3.25;1.55;;;19.80;44.80;;;;;;5123077;28;20043;-38
2021/04/25 07:21:36;;;;;;;1.80;1.30;;;19.80;44.70;;;;;;5122319;27;20472;-38
2021/04/25 07:24:04;;;;;;;3.30;1.63;;;19.80;44.70;;;;;;5102706;28;20051;-38
2021/04/25 07:26:36;;;;;;;2.33;1.60;;;19.80;44.70;;;;;;5104373;28;20491;-38
2021/04/25 07:29:03;;;;;;;1.83;1.38;;;19.80;44.70;;;;;;5123093;27;20052;-37
2021/04/25 07:31:30;;;;;;;1.75;1.40;;;19.80;44.70;;;;;;5127675;27;20126;-38
2021/04/25 07:33:58;;;;;;;1.90;1.52;;;19.80;44.70;;;;;;5126954;27;20407;-38
2021/04/25 07:36:26;;;;;;;1.92;1.50;;;19.70;44.60;;;;;;5126368;27;20079;-38
2021/04/25 07:38:53;;;;;;;2.17;1.38;;;19.80;44.70;;;;;;5126196;27;20104;-39
2021/04/25 07:41:20;;;;;;;2.20;1.67;;;19.80;44.70;;;;;;5126192;27;20046;-38
2021/04/25 07:43:47;;;;;;;2.05;1.25;;;19.80;44.70;;;;;;5124835;27;20039;-38
2021/04/25 07:46:16;;;;;;;2.67;1.55;;;19.80;44.70;;;;;;5125798;27;20056;-38
2021/04/25 07:48:44;;;;;;;2.28;1.58;;;19.80;44.70;;;;;;5126519;27;20055;-38
2021/04/25 07:51:11;;;;;;;1.90;1.52;;;19.80;44.70;;;;;;5126724;27;20051;-38
2021/04/25 07:53:39;;;;;;;2.13;1.83;;;19.80;44.70;;;;;;5125633;27;20054;-38
2021/04/25 07:56:06;;;;;;;1.48;1.25;;;19.80;44.70;;;;;;5125319;27;20047;-38
2021/04/25 07:58:33;;;;;;;1.60;1.15;;;19.80;44.70;;;;;;5126725;27;20051;-38
2021/04/25 08:01:00;;;;;;;2.10;1.60;;;19.80;44.70;;;;;;5126577;27;20047;-38
2021/04/25 08:03:27;;;;;;;2.53;1.67;;;19.80;44.70;;;;;;5126366;27;20445;-38
2021/04/25 08:05:53;;;;;;;3.53;1.90;;;19.80;44.70;;;;;;5125677;27;20074;-39
2021/04/25 08:08:20;;;;;;;2.25;1.45;;;19.90;44.70;;;;;;5124865;27;20050;-38
2021/04/25 08:10:47;;;;;;;2.97;1.75;;;19.90;44.70;;;;;;5124811;27;20079;-38
2021/04/25 08:13:13;;;;;;;1.50;1.27;;;19.90;44.70;;;;;;5126155;27;20051;-38
2021/04/25 08:15:40;;;;;;;2.20;1.45;;;19.90;44.70;;;;;;5124868;27;20096;-38
2021/04/25 08:18:07;;;;;;;2.10;1.33;;;19.90;44.70;;;;;;5125775;27;20039;-38
2021/04/25 08:20:34;;;;;;;2.55;1.63;;;19.90;44.70;;;;;;5126440;27;20044;-38
2021/04/25 08:23:02;;;;;;;2.45;1.63;;;19.90;44.70;;;;;;5124548;27;20521;-38
2021/04/25 08:25:30;;;;;;;1.60;1.30;;;19.90;44.70;;;;;;5125443;27;20051;-38
2021/04/25 08:27:57;;;;;;;2.03;1.38;;;19.90;44.70;;;;;;5125055;27;20039;-38
2021/04/25 08:30:24;;;;;;;2.13;1.40;;;19.90;44.70;;;;;;5125157;27;20050;-38
2021/04/25 08:32:51;;;;;;;2.25;1.45;;;19.90;44.70;;;;;;5125345;27;20053;-39
2021/04/25 08:35:18;;;;;;;2.72;1.70;;;19.90;44.80;;;;;;5124037;27;20043;-38
2021/04/25 08:37:46;;;;;;;2.03;1.27;;;19.90;44.70;;;;;;5124845;27;20039;-38
2021/04/25 08:40:13;;;;;;;2.28;1.50;;;19.90;44.70;;;;;;5124947;27;20062;-38
2021/04/25 08:42:41;;;;;;;2.13;1.60;;;19.90;44.70;;;;;;5124640;27;20070;-38
2021/04/25 08:45:08;;;;;;;2.60;1.50;;;19.90;44.70;;;;;;5125143;27;20063;-38
2021/04/25 08:47:57;;;;;;;1.77;1.45;;;19.90;44.70;;;;;;5124863;27;20396;-39
2021/04/25 08:50:31;;;;;;;2.17;1.63;;;20.00;44.80;;;;;;5125676;27;20051;-38
2021/04/25 08:52:59;;;;;;;2.72;1.77;;;19.90;44.80;;;;;;5124710;27;20051;-38
2021/04/25 08:55:29;;;;;;;2.40;1.40;;;19.90;44.80;;;;;;5124564;27;20093;-38
2021/04/25 08:57:56;;;;;;;2.17;1.55;;;20.00;44.90;;;;;;5124591;27;20047;-38
2021/04/25 09:00:23;;;;;;;2.13;1.40;;;20.00;44.90;;;;;;5124693;27;20576;-38
2021/04/25 09:02:54;;;;;;;2.90;1.73;;;20.00;44.90;;;;;;5125087;27;20048;-38
2021/04/25 09:05:22;;;;;;;2.42;1.70;;;20.00;44.90;;;;;;5107583;27;20047;-38
2021/04/25 09:07:56;;;;;;;2.58;1.60;;;20.00;44.90;;;;;;5123778;27;20043;-38
2021/04/25 09:10:34;;;;;;;1.80;1.27;;;20.00;44.90;;;;;;5123596;27;20060;-38
2021/04/25 09:13:17;;;;;;;2.65;1.65;;;20.00;44.90;;;;;;5124236;27;20040;-38
2021/04/25 09:15:44;;;;;;;2.05;1.60;;;20.00;44.90;;;;;;5123133;27;20067;-38
2021/04/25 09:18:12;;;;;;;3.72;1.40;;;20.00;44.80;;;;;;5124110;27;20047;-38
2021/04/25 09:20:49;;;;;;;2.10;1.38;;;20.00;44.90;;;;;;5125201;27;20506;-38
2021/04/25 09:23:24;;;;;;;2.45;1.58;;;20.00;44.90;;;;;;5125082;27;20395;-38
2021/04/25 09:26:00;;;;;;;2.42;1.30;;;20.00;44.80;;;;;;5124010;27;20050;-38
2021/04/25 09:28:27;;;;;;;1.88;1.30;;;20.00;44.90;;;;;;5123926;27;20407;-38
2021/04/25 09:31:05;;;;;;;2.83;1.73;;;20.00;44.90;;;;;;5124880;27;20446;-38
2021/04/25 09:33:55;;;;;;;2.55;1.42;;;20.10;45.00;;;;;;5123753;27;20047;-38
2021/04/25 09:36:24;;;;;;;2.70;1.23;;;20.10;45.00;;;;;;5123948;27;20442;-39
2021/04/25 09:38:52;;;;;;;1.50;1.38;;;20.10;45.00;;;;;;5123151;27;20092;-39
2021/04/25 09:41:25;;;;;;;2.00;1.48;;;20.10;45.00;;;;;;5124220;27;20108;-38
2021/04/25 09:43:51;;;;;;;2.45;1.77;;;20.10;45.00;;;;;;5124236;27;20069;-38
2021/04/25 09:46:18;;;;;;;2.00;1.50;;;20.10;45.00;;;;;;5125353;27;20142;-38
2021/04/25 09:48:45;;;;;;;2.20;1.35;;;20.10;45.00;;;;;;5123690;27;20039;-39
2021/04/25 09:51:22;;;;;;;2.40;1.55;;;20.10;45.00;;;;;;5124038;27;20063;-38
2021/04/25 09:53:55;;;;;;;2.13;1.40;;;20.10;45.00;;;;;;5123337;27;20148;-38
2021/04/25 09:56:39;;;;;;;2.10;1.40;;;20.10;45.00;;;;;;5124123;27;20491;-38
2021/04/25 09:59:08;;;;;;;2.28;1.73;;;20.10;45.00;;;;;;5123382;27;20047;-38
2021/04/25 10:01:41;;;;;;;1.90;1.40;;;20.10;45.00;;;;;;5123484;27;20043;-38
2021/04/25 10:04:35;;;;;;;1.90;1.45;;;20.10;45.00;;;;;;5122054;27;20040;-38
2021/04/25 10:07:05;;;;;;;2.40;1.70;;;20.10;45.00;;;;;;5123131;27;20039;-38
2021/04/25 10:09:32;;;;;;;1.63;1.50;;;20.10;45.00;;;;;;5122967;27;20062;-38
2021/04/25 10:12:02;;;;;;;2.47;1.67;;;20.10;45.00;;;;;;5123181;27;20132;-39
2021/04/25 10:14:35;;;;;;;2.47;1.60;;;20.10;45.00;;;;;;5129754;27;20415;-39
2021/04/25 10:17:05;;;;;;;2.97;1.65;;;20.20;45.00;;;;;;5128696;27;20043;-39
2021/04/25 10:19:32;;;;;;;1.48;1.27;;;20.20;45.00;;;;;;5128817;27;20047;-39
2021/04/25 10:21:59;;;;;;;1.67;1.40;;;20.20;45.10;;;;;;5128363;27;20134;-38
2021/04/25 10:24:26;;;;;;;2.08;1.50;;;20.20;45.00;;;;;;5128495;27;20040;-39
2021/04/25 10:27:12;;;;;;;2.40;1.60;;;20.20;45.00;;;;;;5128597;27;20050;-38
2021/04/25 10:29:51;;;;;;;2.53;1.50;;;20.20;45.00;;;;;;5127507;27;20048;-38
2021/04/25 10:32:20;;;;;;;2.35;1.70;;;20.20;45.00;;;;;;5127820;27;20044;-38
2021/04/25 10:34:51;;;;;;;2.67;1.58;;;20.20;45.00;;;;;;5128539;27;20445;-38
2021/04/25 10:37:18;;;;;;;1.65;1.30;;;20.20;45.00;;;;;;5128102;27;20043;-38
2021/04/25 10:39:52;;;;;;;2.20;1.55;;;20.20;45.00;;;;;;5129000;27;20039;-38
2021/04/25 10:42:24;;;;;;;1.52;1.38;;;20.20;45.00;;;;;;5127873;27;20486;-38
2021/04/25 10:44:57;;;;;;;2.35;1.48;;;20.20;45.00;;;;;;5128404;27;20039;-38
2021/04/25 10:47:31;;;;;;;2.03;1.52;;;20.20;45.00;;;;;;5128001;27;20054;-38
2021/04/25 10:50:17;;;;;;;2.28;1.50;;;20.20;45.00;;;;;;5128534;27;20916;-38
2021/04/25 10:52:46;;;;;;;2.58;1.60;;;20.20;45.10;;;;;;5128518;27;20398;-38
2021/04/25 10:55:29;;;;;;;2.30;1.52;;;20.20;45.10;;;;;;5127632;27;20050;-38
2021/04/25 10:58:00;;;;;;;1.80;1.42;;;20.20;45.10;;;;;;5128466;27;20043;-39
2021/04/25 11:00:33;;;;;;;2.80;1.73;;;20.20;45.10;;;;;;5128279;27;20059;-38
2021/04/25 11:03:05;;;;;;;2.40;1.35;;;20.20;45.10;;;;;;5128610;27;20146;-39
2021/04/25 11:05:35;;;;;;;2.40;1.70;;;20.20;45.10;;;;;;5127861;27;20491;-38
2021/04/25 11:08:13;;;;;;;2.22;1.50;;;20.20;45.10;;;;;;5127760;27;20130;-38
2021/04/25 11:10:47;;;;;;;2.05;1.70;;;20.20;45.10;;;;;;5127326;27;20074;-38
2021/04/25 11:16:25;;;;;;;2.80;1.60;;;20.30;45.20;;;;;;5127272;27;20057;-38
2021/04/25 11:19:06;;;;;;;;;;;20.30;45.20;;;;;;5118029;28;20047;-38
2021/04/25 11:21:40;;;;;;;1.95;1.45;;;20.30;45.20;;;;;;5127706;27;19927;-39
2021/04/25 11:24:07;;;;;;;1.67;1.25;;;20.30;45.20;;;;;;5123754;27;20561;-38
2021/04/25 11:26:37;;;;;;;2.55;1.60;;;20.30;45.20;;;;;;5113247;28;20043;-38
2021/04/25 11:29:05;;;;;;;3.22;1.73;;;20.30;45.20;;;;;;5112854;27;20075;-39
2021/04/25 11:31:54;;;;;;;2.22;1.65;;;20.30;45.20;;;;;;5113977;27;20505;-38
2021/04/25 11:37:18;;;;;;;2.15;1.55;;;20.30;45.20;;;;;;5113072;28;20039;-37
2021/04/25 11:40:07;;;;;;;2.22;1.58;;;20.30;45.30;;;;;;5113241;28;20043;-38
2021/04/25 11:42:47;;;;;;;2.40;1.48;;;20.30;45.20;;;;;;5112578;28;20048;-38
2021/04/25 11:45:23;;;;;;;2.85;1.80;;;20.30;45.20;;;;;;5113709;27;20047;-38
2021/04/25 11:47:53;;;;;;;1.50;1.33;;;20.30;45.20;;;;;;5112751;28;20194;-38
2021/04/25 11:50:25;;;;;;;1.75;1.40;;;20.30;45.20;;;;;;5103485;28;20471;-38
2021/04/25 11:52:52;;;;;;;3.08;1.95;;;20.30;45.20;;;;;;5113322;28;20453;-37
2021/04/25 11:55:19;;;;;;;1.80;1.30;;;20.30;45.20;;;;;;5112488;27;20824;-38
2021/04/25 11:57:49;;;;;;;2.03;1.40;;;20.30;45.20;;;;;;5112909;28;20044;-37
2021/04/25 12:00:25;;;;;;;2.13;1.42;;;20.30;45.20;;;;;;5113409;28;20456;-37
2021/04/25 12:02:58;;;;;;;2.50;1.60;;;20.30;45.20;;;;;;5113641;28;20051;-37
2021/04/25 12:05:37;;;;;;;1.70;1.42;;;20.30;45.20;;;;;;5137410;27;20047;-38
2021/04/25 12:08:09;;;;;;;2.00;1.50;;;20.30;45.20;;;;;;5112730;28;20062;-38
2021/04/25 12:10:44;;;;;;;1.98;1.60;;;20.40;45.30;;;;;;5103196;28;20047;-38
2021/04/25 12:13:19;;;;;;;2.58;1.63;;;20.40;45.30;;;;;;5104025;28;20051;-37
2021/04/25 12:16:00;;;;;;;2.25;1.52;;;20.40;45.20;;;;;;5112495;28;20539;-37
2021/04/25 12:18:34;;;;;;;2.47;1.80;;;20.40;45.20;;;;;;5112656;28;20075;-38
2021/04/25 12:21:03;;;;;;;2.23;1.77;;;20.40;45.20;;;;;;5112777;27;20047;-38
2021/04/25 12:23:33;;;;;;;2.72;1.70;;;20.40;45.20;;;;;;5112041;28;20134;-37
2021/04/25 12:26:07;;;;;;;2.72;1.67;;;20.40;45.20;;;;;;5113165;27;20084;-38
2021/04/25 12:28:58;;;;;;;2.75;1.55;;;20.40;45.20;;;;;;5111814;28;20063;-38
2021/04/25 12:31:39;;;;;;;3.78;1.40;;;20.40;45.20;;;;;;5112028;28;20406;-40
2021/04/25 12:34:07;;;;;;;2.22;1.80;;;20.40;45.20;;;;;;5112258;28;20449;-38
2021/04/25 12:36:33;;;;;;;1.67;1.35;;;20.40;45.20;;;;;;5110705;28;20495;-38
2021/04/25 12:39:07;;;;;;;2.80;1.42;;;20.40;45.20;;;;;;5111661;28;20040;-38
2021/04/25 12:41:42;;;;;;;2.00;1.50;;;20.40;45.20;;;;;;5102481;28;20051;-37
2021/04/25 12:44:09;;;;;;;2.65;1.52;;;20.40;45.20;;;;;;5111076;28;20071;-38
2021/04/25 12:46:36;;;;;;;1.50;1.40;;;20.40;45.20;;;;;;5109160;28;20058;-38
2021/04/25 12:49:09;;;;;;;2.55;1.30;;;20.40;45.20;;;;;;5110190;28;20051;-38
2021/04/25 12:51:41;;;;;;;1.67;1.40;;;20.40;45.20;;;;;;5111448;27;20040;-38
2021/04/25 12:54:19;;;;;;;1.63;1.23;;;20.40;45.20;;;;;;5110589;28;20057;-38
2021/04/25 12:56:54;;;;;;;2.38;1.73;;;20.40;45.20;;;;;;5110255;28;20491;-37
2021/04/25 12:59:33;;;;;;;3.17;1.77;;;20.40;45.20;;;;;;5111489;28;20076;-38
2021/04/25 13:02:00;;;;;;;1.40;1.30;;;20.40;45.20;;;;;;5111921;27;20051;-38
2021/04/25 13:04:40;;;;;;;2.20;1.48;;;20.40;45.20;;;;;;5111515;28;20131;-37